createdAt,value
2022-11-05T00:00:31.901Z,10.55
2022-11-05T00:03:17.669Z,11.60
2022-11-05T00:06:05.375Z,11.57
2022-11-05T00:08:51.251Z,11.48
2022-11-05T00:11:18.650Z,13.65
2022-11-05T00:14:04.060Z,13.00
2022-11-05T00:16:46.356Z,11.93
2022-11-05T00:19:15.091Z,11.93
2022-11-05T00:22:00.946Z,11.73
2022-11-05T00:24:46.437Z,10.45
2022-11-05T00:27:13.326Z,13.40
2022-11-05T00:29:40.277Z,16.80
2022-11-05T00:32:07.285Z,14.00
2022-11-05T00:34:34.358Z,13.63
2022-11-05T00:37:01.301Z,11.15
2022-11-05T00:39:28.164Z,15.75
2022-11-05T00:42:13.940Z,14.57
2022-11-05T00:44:59.553Z,14.63
2022-11-05T00:47:45.062Z,14.50
2022-11-05T00:50:12.326Z,16.83
2022-11-05T00:52:57.890Z,13.48
2022-11-05T00:55:35.689Z,14.75
2022-11-05T00:58:05.309Z,15.07
2022-11-05T01:00:33.847Z,16.63
2022-11-05T01:03:03.508Z,13.48
2022-11-05T01:05:32.291Z,16.10
2022-11-05T01:07:59.450Z,11.82
2022-11-05T01:10:26.568Z,12.52
2022-11-05T01:12:54.041Z,14.93
2022-11-05T01:15:21.585Z,19.88
2022-11-05T01:17:48.821Z,15.75
2022-11-05T01:20:16.603Z,14.73
2022-11-05T01:22:43.601Z,15.32
2022-11-05T01:25:10.690Z,17.10
2022-11-05T01:27:38.281Z,22.05
2022-11-05T01:30:07.901Z,15.35
2022-11-05T01:32:36.429Z,11.73
2022-11-05T01:35:08.168Z,13.35
2022-11-05T01:37:36.448Z,17.23
2022-11-05T01:40:04.124Z,14.57
2022-11-05T01:42:32.433Z,13.38
2022-11-05T01:45:26.567Z,18.13
2022-11-05T01:48:16.629Z,13.60
2022-11-05T01:51:01.450Z,15.52
2022-11-05T01:53:44.900Z,16.95
2022-11-05T01:56:14.648Z,17.60
2022-11-05T01:58:56.934Z,15.05
2022-11-05T02:01:25.149Z,14.77
2022-11-05T02:03:57.609Z,14.57
2022-11-05T02:06:27.560Z,14.77
2022-11-05T02:09:00.230Z,13.63
2022-11-05T02:13:54.124Z,19.08
2022-11-05T02:16:29.222Z,17.80
2022-11-05T02:19:05.805Z,22.05
2022-11-05T02:21:58.670Z,18.08
2022-11-05T02:24:31.684Z,14.85
2022-11-05T02:27:16.412Z,20.40
2022-11-05T02:30:03.148Z,18.90
2022-11-05T02:32:54.885Z,18.52
2022-11-05T02:35:50.126Z,19.55
2022-11-05T02:38:32.193Z,20.60
2022-11-05T02:41:31.646Z,17.98
2022-11-05T02:44:16.789Z,23.65
2022-11-05T02:47:12.893Z,31.13
2022-11-05T02:50:02.499Z,35.20
2022-11-05T02:52:37.793Z,26.98
2022-11-05T02:55:18.846Z,22.50
2022-11-05T02:57:47.962Z,21.60
2022-11-05T03:00:55.004Z,16.70
2022-11-05T03:03:36.829Z,14.80
2022-11-05T03:06:35.151Z,17.85
2022-11-05T03:09:24.050Z,15.50
2022-11-05T03:12:15.387Z,19.58
2022-11-05T03:15:11.294Z,25.33
2022-11-05T03:17:38.090Z,19.42
2022-11-05T03:20:22.075Z,20.30
2022-11-05T03:23:01.209Z,28.65
2022-11-05T03:25:29.607Z,20.80
2022-11-05T03:28:00.877Z,15.95
2022-11-05T03:30:28.401Z,25.83
2022-11-05T03:33:03.673Z,20.10
2022-11-05T03:35:40.627Z,19.83
2022-11-05T03:38:13.358Z,21.02
2022-11-05T03:43:09.680Z,17.38
2022-11-05T03:45:51.676Z,16.88
2022-11-05T03:48:21.086Z,21.15
2022-11-05T03:51:11.270Z,20.98
2022-11-05T03:53:46.042Z,15.25
2022-11-05T03:56:36.092Z,13.77
2022-11-05T03:59:06.617Z,17.08
2022-11-05T04:01:36.348Z,18.13
2022-11-05T04:04:05.562Z,18.42
2022-11-05T04:06:51.026Z,19.10
2022-11-05T04:09:36.989Z,17.75
2022-11-05T04:12:23.143Z,16.05
2022-11-05T04:14:50.202Z,19.77
2022-11-05T04:17:17.454Z,16.80
2022-11-05T04:20:04.339Z,14.40
2022-11-05T04:22:53.002Z,19.90
2022-11-05T04:25:21.546Z,18.83
2022-11-05T04:27:49.046Z,20.33
2022-11-05T04:30:18.472Z,17.67
2022-11-05T04:33:00.338Z,22.30
2022-11-05T04:35:30.506Z,12.40
2022-11-05T04:37:57.574Z,11.43
2022-11-05T04:40:25.142Z,13.35
2022-11-05T04:42:54.564Z,19.63
2022-11-05T04:45:23.460Z,10.85
2022-11-05T04:47:50.643Z,15.50
2022-11-05T04:50:18.301Z,15.32
2022-11-05T04:52:45.414Z,15.70
2022-11-05T04:55:12.739Z,12.68
2022-11-05T04:57:40.109Z,19.58
2022-11-05T05:00:08.361Z,14.15
2022-11-05T05:02:38.558Z,13.00
2022-11-05T05:05:05.950Z,14.27
2022-11-05T05:07:34.900Z,14.70
2022-11-05T05:10:03.758Z,14.38
2022-11-05T05:12:32.790Z,24.67
2022-11-05T05:14:59.911Z,11.55
2022-11-05T05:17:27.132Z,13.40
2022-11-05T05:20:13.143Z,16.10
2022-11-05T05:22:41.230Z,14.02
2022-11-05T05:25:08.879Z,18.63
2022-11-05T05:27:35.965Z,21.38
2022-11-05T05:30:03.936Z,17.50
2022-11-05T05:32:30.995Z,22.13
2022-11-05T05:34:58.520Z,15.40
2022-11-05T05:37:25.596Z,20.10
2022-11-05T05:39:53.726Z,20.15
2022-11-05T05:42:23.189Z,25.17
2022-11-05T05:44:50.260Z,16.42
2022-11-05T05:47:17.455Z,17.75
2022-11-05T05:49:44.467Z,26.10
2022-11-05T05:52:11.662Z,22.30
2022-11-05T05:54:42.781Z,18.75
2022-11-05T05:57:10.374Z,14.93
2022-11-05T05:59:37.963Z,18.17
2022-11-05T06:02:05.273Z,16.48
2022-11-05T06:04:32.528Z,15.07
2022-11-05T06:06:59.799Z,15.18
2022-11-05T06:09:26.762Z,18.30
2022-11-05T06:11:53.944Z,15.63
2022-11-05T06:14:21.302Z,16.45
2022-11-05T06:16:48.485Z,16.85
2022-11-05T06:19:15.587Z,19.17
2022-11-05T06:21:42.713Z,17.58
2022-11-05T06:24:10.856Z,13.50
2022-11-05T06:26:43.013Z,17.40
2022-11-05T06:29:10.856Z,20.42
2022-11-05T06:31:38.399Z,16.83
2022-11-05T06:34:05.876Z,15.27
2022-11-05T06:36:33.650Z,23.65
2022-11-05T06:39:01.006Z,19.70
2022-11-05T06:41:28.503Z,19.27
2022-11-05T06:43:55.889Z,19.83
2022-11-05T06:46:23.439Z,17.95
2022-11-05T06:48:51.251Z,22.20
2022-11-05T06:51:19.006Z,24.10
2022-11-05T06:53:46.223Z,19.27
2022-11-05T06:56:13.249Z,19.00
2022-11-05T06:58:40.675Z,20.77
2022-11-05T07:01:10.234Z,14.95
2022-11-05T07:03:39.038Z,18.05
2022-11-05T07:06:07.783Z,21.60
2022-11-05T07:08:36.890Z,17.35
2022-11-05T07:11:04.947Z,15.55
2022-11-05T07:13:32.273Z,19.08
2022-11-05T07:15:59.462Z,18.45
2022-11-05T07:18:27.038Z,18.13
2022-11-05T07:20:54.204Z,14.88
2022-11-05T07:23:21.280Z,15.40
2022-11-05T07:25:48.285Z,14.77
2022-11-05T07:28:15.524Z,16.80
2022-11-05T07:30:42.436Z,19.85
2022-11-05T07:33:10.211Z,13.50
2022-11-05T07:35:37.301Z,15.93
2022-11-05T07:38:04.533Z,16.42
2022-11-05T07:40:31.921Z,18.63
2022-11-05T07:43:00.892Z,14.55
2022-11-05T07:45:30.425Z,13.68
2022-11-05T07:48:03.540Z,13.40
2022-11-05T07:50:33.300Z,14.65
2022-11-05T07:53:02.479Z,12.07
2022-11-05T07:55:30.314Z,16.38
2022-11-05T07:57:57.716Z,14.85
2022-11-05T08:00:25.947Z,13.43
2022-11-05T08:03:07.605Z,15.50
2022-11-05T08:05:37.885Z,12.73
2022-11-05T08:08:06.480Z,13.68
2022-11-05T08:10:34.295Z,13.93
2022-11-05T08:13:02.099Z,14.25
2022-11-05T08:15:29.427Z,11.77
2022-11-05T08:18:12.197Z,14.55
2022-11-05T08:20:39.602Z,14.25
2022-11-05T08:23:06.680Z,12.35
2022-11-05T08:25:34.347Z,16.88
2022-11-05T08:28:05.421Z,12.85
2022-11-05T08:30:33.202Z,12.27
2022-11-05T08:33:05.792Z,11.35
2022-11-05T08:35:35.060Z,10.05
2022-11-05T08:38:04.053Z,10.65
2022-11-05T08:40:33.367Z,12.10
2022-11-05T08:43:05.233Z,11.05
2022-11-05T08:45:38.283Z,11.75
2022-11-05T08:48:09.198Z,12.77
2022-11-05T08:50:37.481Z,11.82
2022-11-05T08:53:06.303Z,12.95
2022-11-05T08:55:33.959Z,11.63
2022-11-05T08:58:03.374Z,14.00
2022-11-05T09:00:33.537Z,14.18
2022-11-05T09:03:02.431Z,13.13
2022-11-05T09:05:31.407Z,13.50
2022-11-05T09:08:01.453Z,12.88
2022-11-05T09:10:29.097Z,14.32
2022-11-05T09:12:56.649Z,12.05
2022-11-05T09:15:24.682Z,13.18
2022-11-05T09:17:52.184Z,13.27
2022-11-05T09:20:19.776Z,11.48
2022-11-05T09:22:47.164Z,14.68
2022-11-05T09:25:15.982Z,11.18
2022-11-05T09:27:43.865Z,10.52
2022-11-05T09:30:13.532Z,12.38
2022-11-05T09:32:41.202Z,11.00
2022-11-05T09:35:09.456Z,13.43
2022-11-05T09:37:38.174Z,11.95
2022-11-05T09:40:06.115Z,13.68
2022-11-05T09:42:40.869Z,14.68
2022-11-05T09:45:13.633Z,13.50
2022-11-05T09:50:20.316Z,13.13
2022-11-05T09:52:47.603Z,11.88
2022-11-05T09:55:39.243Z,13.25
2022-11-05T09:58:35.978Z,8.85
2022-11-05T10:01:07.718Z,13.27
2022-11-05T10:03:43.675Z,12.13
2022-11-05T10:06:19.373Z,15.02
2022-11-05T10:08:53.039Z,12.50
2022-11-05T10:11:37.536Z,14.13
2022-11-05T10:14:49.578Z,13.80
2022-11-05T10:17:22.613Z,14.50
2022-11-05T10:20:02.523Z,15.07
2022-11-05T10:22:29.662Z,14.45
2022-11-05T10:24:56.975Z,16.70
2022-11-05T10:27:31.351Z,16.55
2022-11-05T10:29:58.872Z,16.83
2022-11-05T10:32:34.411Z,17.05
2022-11-05T10:35:04.571Z,15.38
2022-11-05T10:37:37.021Z,19.45
2022-11-05T10:40:18.608Z,14.68
2022-11-05T10:42:48.314Z,13.98
2022-11-05T10:45:30.813Z,17.05
2022-11-05T10:48:29.952Z,15.85
2022-11-05T10:50:57.730Z,15.52
2022-11-05T10:53:33.104Z,20.35
2022-11-05T10:56:00.713Z,21.08
2022-11-05T10:58:34.862Z,20.52
2022-11-05T11:01:07.053Z,20.15
2022-11-05T11:03:39.474Z,20.63
2022-11-05T11:06:28.125Z,19.10
2022-11-05T11:08:58.077Z,21.25
2022-11-05T11:11:38.516Z,19.08
2022-11-05T11:14:18.803Z,20.83
2022-11-05T11:16:48.142Z,20.55
2022-11-05T11:19:25.490Z,21.10
2022-11-05T11:22:04.488Z,19.13
2022-11-05T11:24:43.617Z,21.83
2022-11-05T11:27:22.835Z,19.25
2022-11-05T11:30:01.587Z,20.65
2022-11-05T14:01:46.114Z,25.67
2022-11-05T14:04:27.975Z,28.73
2022-11-05T14:07:05.841Z,21.47
2022-11-05T14:09:36.136Z,26.80
2022-11-05T14:12:05.453Z,27.17
2022-11-05T14:14:48.106Z,26.48
2022-11-05T14:17:31.010Z,25.30
2022-11-05T14:22:32.081Z,30.02
2022-11-05T14:25:23.427Z,15.43
2022-11-05T14:27:52.711Z,23.27
2022-11-05T14:30:41.079Z,25.33
2022-11-05T14:33:27.228Z,27.30
2022-11-05T14:36:20.314Z,28.65
2022-11-05T14:38:51.134Z,25.25
2022-11-05T14:41:19.803Z,23.58
2022-11-05T14:44:13.267Z,26.83
2022-11-05T14:46:47.179Z,22.98
2022-11-05T14:49:21.456Z,25.08
2022-11-05T14:51:51.644Z,24.45
2022-11-05T14:54:34.021Z,20.58
2022-11-05T14:57:02.659Z,26.15
2022-11-05T14:59:31.827Z,28.42
2022-11-05T15:02:02.588Z,25.63
2022-11-05T15:04:32.951Z,23.02
2022-11-05T15:07:03.228Z,23.10
2022-11-05T15:09:33.321Z,28.17
2022-11-05T15:12:10.278Z,19.67
2022-11-05T15:15:00.555Z,25.02
2022-11-05T15:17:39.577Z,24.08
2022-11-05T15:20:06.783Z,20.77
2022-11-05T15:22:40.419Z,27.90
2022-11-05T15:25:29.873Z,22.45
2022-11-05T15:28:05.945Z,20.95
2022-11-05T15:30:33.402Z,25.08
2022-11-05T15:33:20.981Z,23.02
2022-11-05T15:35:48.833Z,25.42
2022-11-05T15:38:34.403Z,26.20
2022-11-05T15:41:21.310Z,26.50
2022-11-05T15:43:49.911Z,30.48
2022-11-05T15:46:31.044Z,22.00
2022-11-05T15:49:04.656Z,29.67
2022-11-05T15:51:32.288Z,35.63
2022-11-05T15:54:29.232Z,24.75
2022-11-05T15:57:00.351Z,34.55
2022-11-05T15:59:29.807Z,28.40
2022-11-05T16:02:06.113Z,31.60
2022-11-05T16:04:35.426Z,28.33
2022-11-05T16:07:12.301Z,33.00
2022-11-05T16:09:44.136Z,30.20
2022-11-05T16:12:38.108Z,27.95
2022-11-05T16:15:08.144Z,27.77
2022-11-05T16:17:47.613Z,24.83
2022-11-05T16:20:23.629Z,28.00
2022-11-05T16:22:54.319Z,27.52
2022-11-05T16:25:43.301Z,26.25
2022-11-05T16:28:22.506Z,24.58
2022-11-05T16:31:02.526Z,27.85
2022-11-05T16:33:43.016Z,27.92
2022-11-05T16:36:10.439Z,35.67
2022-11-05T16:38:37.527Z,24.45
2022-11-05T16:41:07.052Z,28.20
2022-11-05T16:43:34.683Z,27.75
2022-11-05T16:46:02.356Z,27.45
2022-11-05T16:48:29.562Z,27.70
2022-11-05T16:50:56.840Z,27.20
2022-11-05T16:53:24.015Z,29.13
2022-11-05T16:55:51.202Z,30.65
2022-11-05T16:58:24.086Z,25.20
2022-11-05T17:00:56.474Z,33.15
2022-11-05T17:03:24.086Z,36.47
2022-11-05T17:05:51.240Z,26.88
2022-11-05T17:08:18.367Z,29.58
2022-11-05T17:10:45.583Z,30.23
2022-11-05T17:13:15.667Z,27.90
2022-11-05T17:15:44.955Z,25.02
2022-11-05T17:18:17.966Z,31.20
2022-11-05T17:20:51.398Z,26.80
2022-11-05T17:23:21.017Z,24.65
2022-11-05T17:25:54.689Z,27.75
2022-11-05T17:28:22.007Z,23.27
2022-11-05T17:30:52.921Z,22.77
2022-11-05T17:33:23.120Z,24.05
2022-11-05T17:35:51.579Z,26.98
2022-11-05T17:38:18.954Z,24.20
2022-11-05T17:40:45.887Z,29.73
2022-11-05T17:43:13.076Z,25.95
2022-11-05T17:45:45.354Z,31.58
2022-11-05T17:48:13.001Z,28.45
2022-11-05T17:50:44.666Z,31.70
2022-11-05T17:53:12.877Z,24.30
2022-11-05T17:55:45.114Z,21.23
2022-11-05T17:58:12.452Z,29.58
2022-11-05T18:00:40.057Z,23.38
2022-11-05T18:03:07.218Z,26.95
2022-11-05T18:05:34.909Z,28.15
2022-11-05T20:44:05.146Z,26.35
2022-11-05T20:46:32.257Z,34.03
2022-11-05T20:48:59.607Z,29.75
2022-11-05T20:51:26.783Z,36.58
2022-11-05T20:54:01.879Z,35.17
2022-11-05T20:56:31.917Z,39.70
2022-11-05T20:59:00.947Z,37.08
2022-11-05T21:01:31.386Z,38.85
2022-11-05T21:04:00.007Z,40.50
2022-11-05T21:06:27.499Z,47.88
2022-11-05T21:08:55.467Z,47.38
2022-11-05T21:11:23.258Z,45.05
2022-11-05T21:13:51.007Z,56.22
2022-11-05T21:16:20.682Z,43.53
2022-11-05T21:18:48.639Z,42.03
2022-11-05T21:21:20.712Z,34.80
2022-11-05T21:23:48.550Z,47.60
2022-11-05T21:26:18.112Z,39.85
2022-11-05T21:28:45.707Z,52.28
2022-11-05T21:31:13.359Z,26.67
2022-11-05T21:33:40.807Z,42.75
2022-11-05T21:36:13.760Z,32.55
2022-11-05T21:41:08.993Z,29.50
2022-11-05T21:43:38.750Z,33.78
2022-11-05T21:46:06.258Z,38.38
2022-11-05T21:48:34.191Z,32.17
2022-11-05T21:51:20.157Z,31.42
2022-11-05T21:54:06.813Z,36.03
2022-11-05T21:56:52.678Z,26.88
2022-11-05T21:59:41.655Z,36.13
2022-11-05T22:02:11.491Z,34.30
2022-11-05T22:04:41.925Z,21.67
2022-11-05T22:07:10.799Z,26.98
2022-11-05T22:09:38.749Z,29.65
2022-11-05T22:12:06.953Z,28.13
2022-11-05T22:14:34.628Z,30.13
2022-11-05T22:17:02.307Z,30.88
2022-11-05T22:19:30.801Z,29.15
2022-11-05T22:21:58.045Z,24.30
2022-11-05T22:24:25.842Z,31.13
2022-11-05T22:26:53.279Z,27.08
2022-11-05T22:29:20.505Z,32.72
2022-11-05T22:31:47.978Z,32.20
2022-11-05T22:34:14.978Z,27.70
2022-11-05T22:36:42.289Z,26.33
2022-11-05T22:39:11.929Z,17.95
2022-11-05T22:41:39.624Z,32.55
2022-11-05T22:44:06.912Z,24.65
2022-11-05T22:46:34.010Z,28.90
2022-11-05T22:49:01.141Z,33.55
2022-11-05T22:51:31.453Z,24.65
2022-11-05T22:53:59.531Z,29.02
2022-11-05T22:56:29.618Z,27.23
2022-11-05T22:58:57.503Z,33.28
2022-11-05T23:01:25.370Z,24.52
2022-11-05T23:03:54.448Z,24.85
2022-11-05T23:06:42.454Z,32.65
2022-11-05T23:09:38.381Z,26.48
2022-11-05T23:12:08.963Z,30.98
2022-11-05T23:14:36.778Z,31.50
2022-11-05T23:17:22.653Z,24.48
2022-11-05T23:20:08.167Z,27.52
2022-11-05T23:22:53.841Z,30.92
2022-11-05T23:25:22.895Z,33.25
2022-11-05T23:27:52.393Z,25.08
2022-11-05T23:30:24.794Z,29.20
2022-11-05T23:32:52.970Z,28.33
2022-11-05T23:35:43.673Z,24.80
2022-11-05T23:38:29.335Z,32.70
2022-11-05T23:41:22.614Z,25.88
2022-11-05T23:46:54.386Z,19.92
2022-11-05T23:49:22.230Z,26.70
2022-11-05T23:51:49.676Z,34.35
2022-11-05T23:54:16.605Z,32.63
2022-11-05T23:56:43.552Z,36.67
2022-11-05T23:59:10.921Z,35.10
